DW3838 Sebastopol CA US current weather conditions

sailwx.info

Wind from 162

Air temperature 19.4° C
Dewpoint 15.1° C

Last reported at 2019-Aug-19 19:46 UTC.
Time now 2019-Aug-19 20:18 UTC

Location: N 38°25' W 122°53'.
View on Google Maps.

See reports from other nearby stations

  
Tides and Currents Weather Stations Pressure Air Temp Water Temp Dewpoint Dewpoint Depression Visibility Wind Speed Wind Dir Waves Ship Positions
date/time (UTC)wind fromknots sea level pressurealtimeterstation pressurevisibilityair tempwater tempwave heightnotes
2019-Aug-19 19:46 162 19.4
2019-Aug-19 19:31 194 0 gusting 3 18.3
2019-Aug-19 19:16 195 17.2
2019-Aug-19 19:01 195 16.7
2019-Aug-19 18:45 195 16.7
2019-Aug-19 18:30 195 16.1
2019-Aug-19 18:15 196 16.1
2019-Aug-19 18:01 195 15.6
2019-Aug-19 17:45 196 15.0
2019-Aug-19 17:30 196 15.0
2019-Aug-19 17:15 195 0 gusting 2 14.4
2019-Aug-19 17:01 196 14.4
2019-Aug-19 16:45 196 13.9
2019-Aug-19 16:30 195 13.9
2019-Aug-19 16:15 195 13.3
2019-Aug-19 16:00 195 13.3
2019-Aug-19 15:45 196 12.8
2019-Aug-19 15:30 195 12.8
2019-Aug-19 15:15 195 12.8
2019-Aug-19 15:01 195 12.8
2019-Aug-19 14:47 195 12.8
2019-Aug-19 14:32 196 12.8
2019-Aug-19 14:16 195 12.8
2019-Aug-19 14:01 195 12.8
2019-Aug-19 13:47 195 12.8
2019-Aug-19 13:31 196 12.8
2019-Aug-19 13:16 196 12.8
2019-Aug-19 13:01 196 12.8
2019-Aug-19 12:46 196 12.8
2019-Aug-19 12:31 196 12.8
2019-Aug-19 12:17 196 12.8
2019-Aug-19 12:01 196 12.8
2019-Aug-19 11:46 196 12.8
2019-Aug-19 11:31 196 12.8
2019-Aug-19 11:17 196 12.8
2019-Aug-19 11:01 196 12.8
2019-Aug-19 10:46 196 12.8
2019-Aug-19 10:31 196 12.8
2019-Aug-19 10:16 196 12.8
2019-Aug-19 10:02 196 12.8
2019-Aug-19 09:46 196 12.8
2019-Aug-19 09:31 196 12.8
2019-Aug-19 09:16 196 12.8
2019-Aug-19 09:01 196 12.8
2019-Aug-19 08:45 195 12.8
2019-Aug-19 08:31 226 0 gusting 3 12.8
2019-Aug-19 08:16 226 12.8
2019-Aug-19 08:01 227 12.8
2019-Aug-19 07:46 227 12.8
2019-Aug-19 07:31 227 12.8
2019-Aug-19 07:16 228 12.8
2019-Aug-19 07:00 230 13.3
2019-Aug-19 06:46 233 13.3
2019-Aug-19 06:30 233 13.3
2019-Aug-19 06:15 233 13.3
2019-Aug-19 06:00 233 13.3
2019-Aug-19 05:46 225 13.3
2019-Aug-19 05:31 205 13.3
2019-Aug-19 05:16 208 13.3
2019-Aug-19 05:01 200 0 gusting 4 13.3
2019-Aug-19 04:45 200 0 gusting 2 13.3
2019-Aug-19 04:30 190 1 gusting 4 13.3
2019-Aug-19 04:15 196 0 gusting 6 13.3
2019-Aug-19 04:00 194 2 gusting 6 13.3
2019-Aug-19 03:45 188 2 gusting 6 13.3
2019-Aug-19 03:30 207 2 gusting 7 13.3
2019-Aug-19 03:15 205 3 gusting 8 13.3
2019-Aug-19 03:00 211 3 gusting 8 13.9
2019-Aug-19 02:45 204 1 gusting 6 14.4
2019-Aug-19 02:31 207 0 gusting 6 14.4
2019-Aug-19 02:15 207 1 gusting 6 15.0
2019-Aug-19 02:00 222 2 gusting 6 15.6
2019-Aug-19 01:45 190 2 gusting 8 15.6
2019-Aug-19 01:30 225 2 gusting 8 16.1
2019-Aug-19 01:15 204 4 gusting 9 16.7
2019-Aug-19 01:00 200 0 gusting 9 17.2
2019-Aug-19 00:45 204 3 gusting 12 17.8
2019-Aug-19 00:30 194 2 gusting 6 18.3
2019-Aug-19 00:15 203 2 gusting 6 18.9
2019-Aug-19 00:00 190 2 gusting 6 18.9
2019-Aug-18 23:45 163 1 gusting 7 19.4
2019-Aug-18 23:30 206 4 gusting 7 19.4
2019-Aug-18 23:15 194 1 gusting 7 19.4
2019-Aug-18 23:00 199 3 gusting 10 19.4
2019-Aug-18 22:45 205 5 gusting 9 20.6
2019-Aug-18 22:30 168 0 gusting 13 20.6
2019-Aug-18 22:15 123 0 gusting 7 21.1
2019-Aug-18 22:00 166 1 gusting 7 22.2
2019-Aug-18 21:45 167 1 gusting 7 22.8
2019-Aug-18 21:30 344 0 gusting 6 23.3
2019-Aug-18 21:16 247 2 gusting 6 23.3
2019-Aug-18 21:02 174 0 gusting 6 23.3
2019-Aug-18 20:47 223 2 gusting 6 23.9
2019-Aug-18 20:31 217 2 gusting 6 24.4
2019-Aug-18 20:17 209 1 gusting 6 23.3
2019-Aug-18 20:01 217 1 gusting 5 23.3
2019-Aug-18 19:46 140 22.8
2019-Aug-18 19:31 250 0 gusting 3 22.2
2019-Aug-18 19:16 232 21.1
2019-Aug-18 19:01 240 20.0
2019-Aug-18 18:46 260 18.3
2019-Aug-18 18:31 252 17.8
2019-Aug-18 18:16 253 17.2
2019-Aug-18 18:01 254 16.7
2019-Aug-18 17:45 254 0 gusting 3 16.7
2019-Aug-18 17:30 252 16.1
2019-Aug-18 17:16 254 15.6
2019-Aug-18 17:01 205 15.6
2019-Aug-18 16:45 205 15.6
2019-Aug-18 16:30 205 15.6
2019-Aug-18 16:15 205 15.0
2019-Aug-18 16:00 204 15.0
2019-Aug-18 15:45 205 14.4
2019-Aug-18 15:30 205 14.4
2019-Aug-18 15:15 205 14.4
2019-Aug-18 15:00 205 14.4
2019-Aug-18 14:47 205 13.9
2019-Aug-18 14:31 205 13.9
2019-Aug-18 14:17 205 13.9
2019-Aug-18 14:01 205 13.9
2019-Aug-18 13:48 205 13.9
2019-Aug-18 13:30 205 13.9
2019-Aug-18 13:17 205 13.9
2019-Aug-18 13:02 205 13.9
2019-Aug-18 12:46 205 13.9
2019-Aug-18 12:31 205 13.3
2019-Aug-18 12:16 205 13.3
2019-Aug-18 12:01 205 13.3
2019-Aug-18 11:46 205 13.3
2019-Aug-18 11:31 205 13.3
2019-Aug-18 11:16 205 13.3
2019-Aug-18 11:01 205 13.3
2019-Aug-18 10:46 205 13.3
2019-Aug-18 10:31 205 13.3
2019-Aug-18 10:17 205 13.3
2019-Aug-18 10:02 205 13.3
2019-Aug-18 09:46 205 13.3
2019-Aug-18 09:31 205 13.3
2019-Aug-18 09:15 205 12.8
2019-Aug-18 09:01 205 12.8
2019-Aug-18 08:46 205 12.8
2019-Aug-18 08:30 205 12.8
2019-Aug-18 08:16 205 12.8
2019-Aug-18 08:01 205 12.8
2019-Aug-18 07:46 205 12.8
2019-Aug-18 07:31 205 12.8
2019-Aug-18 07:16 200 0 gusting 4 12.8
2019-Aug-18 07:00 211 0 gusting 4 12.8
2019-Aug-18 06:46 207 0 gusting 3 12.8
2019-Aug-18 06:31 207 12.8
2019-Aug-18 06:16 209 13.3
2019-Aug-18 06:00 217 13.3
2019-Aug-18 05:46 221 1 gusting 4 13.3
2019-Aug-18 05:30 207 1 gusting 6 13.3
2019-Aug-18 05:16 192 0 gusting 3 13.3
2019-Aug-18 05:00 190 13.3
2019-Aug-18 04:45 200 13.3
2019-Aug-18 04:30 200 13.3
2019-Aug-18 04:15 191 0 gusting 6 13.3
2019-Aug-18 04:00 251 0 gusting 5 13.3
2019-Aug-18 03:46 184 0 gusting 6 13.3
2019-Aug-18 03:30 207 2 gusting 6 12.8
2019-Aug-18 03:15 178 1 gusting 5 12.8
2019-Aug-18 03:00 188 1 gusting 9 12.8
2019-Aug-18 02:45 147 0 gusting 6 13.3
2019-Aug-18 02:30 225 2 gusting 7 13.3
2019-Aug-18 02:15 173 3 gusting 9 13.3
2019-Aug-18 02:00 194 5 gusting 9 13.9
2019-Aug-18 01:46 184 1 gusting 9 13.9
2019-Aug-18 01:30 244 3 gusting 11 13.9
2019-Aug-18 01:15 138 3 gusting 11 13.9
2019-Aug-18 01:00 170 3 gusting 10 15.0
2019-Aug-18 00:45 245 3 gusting 14 16.7
2019-Aug-18 00:30 188 3 gusting 12 17.8
2019-Aug-18 00:15 235 2 gusting 7 19.4
2019-Aug-18 00:00 192 4 gusting 10 20.0
2019-Aug-17 23:45 146 3 gusting 8 21.7
2019-Aug-17 23:30 218 3 gusting 6 22.2
2019-Aug-17 23:16 198 3 gusting 8 21.7
2019-Aug-17 23:00 192 1 gusting 8 21.7
2019-Aug-17 22:45 199 2 gusting 10 21.1
2019-Aug-17 22:30 180 3 gusting 6 22.2
2019-Aug-17 22:15 183 4 gusting 7 21.7
2019-Aug-17 22:00 267 3 gusting 7 21.7
2019-Aug-17 21:45 195 0 gusting 8 21.7
2019-Aug-17 21:30 221 3 gusting 7 21.7
2019-Aug-17 21:15 261 1 gusting 8 21.1
2019-Aug-17 21:00 248 3 gusting 8 21.7
2019-Aug-17 20:45 243 0 gusting 6 21.7
2019-Aug-17 20:30 186 3 gusting 9 21.7
2019-Aug-17 20:15 178 2 gusting 8 21.7
2019-Aug-17 20:00 173 0 gusting 6 21.7